TimeEDT,TemperatureF,Dew PointF,Humidity,Sea Level PressureIn,VisibilityMPH,Wind Direction,Wind SpeedMPH,Gust SpeedMPH,PrecipitationIn,Events,Conditions,WindDirDegrees,DateUTC
12:53 AM,70.0,64.0,81,30.09,10.0,East,8.1,-,N/A,,Clear,80,2013-04-10 04:53:00
1:53 AM,69.1,64.0,84,30.08,10.0,East,8.1,-,N/A,,Clear,80,2013-04-10 05:53:00
2:53 AM,68.0,64.0,87,30.06,10.0,East,5.8,-,N/A,,Clear,80,2013-04-10 06:53:00
3:53 AM,66.9,64.0,90,30.05,10.0,ENE,4.6,-,N/A,,Clear,70,2013-04-10 07:53:00
4:53 AM,66.9,64.0,90,30.04,10.0,ENE,5.8,-,N/A,,Clear,60,2013-04-10 08:53:00
5:53 AM,66.0,64.0,93,30.04,9.0,ENE,6.9,-,N/A,,Clear,60,2013-04-10 09:53:00
6:53 AM,66.0,64.0,93,30.04,9.0,ENE,6.9,-,N/A,,Clear,70,2013-04-10 10:53:00
7:53 AM,69.1,64.9,87,30.05,9.0,East,6.9,-,N/A,,Clear,90,2013-04-10 11:53:00
8:53 AM,72.0,66.0,81,30.05,10.0,East,8.1,-,N/A,,Scattered Clouds,100,2013-04-10 12:53:00
9:53 AM,78.1,68.0,71,30.05,10.0,East,12.7,17.3,N/A,,Clear,100,2013-04-10 13:53:00
10:53 AM,80.1,68.0,67,30.06,10.0,ESE,12.7,-,N/A,,Partly Cloudy,110,2013-04-10 14:53:00
11:16 AM,82.4,68.0,62,30.06,10.0,ESE,13.8,20.7,N/A,,Mostly Cloudy,120,2013-04-10 15:16:00
11:38 AM,82.4,69.8,66,30.06,10.0,SE,11.5,-,N/A,,Mostly Cloudy,130,2013-04-10 15:38:00
11:53 AM,84.0,68.0,58,30.05,10.0,ESE,10.4,-,N/A,,Mostly Cloudy,110,2013-04-10 15:53:00
1:53 PM,87.1,68.0,53,30.01,10.0,ESE,10.4,19.6,N/A,,Mostly Cloudy,120,2013-04-10 17:53:00
2:53 PM,82.9,71.1,67,30.00,9.0,South,11.5,-,0.00,Rain,Light Rain,190,2013-04-10 18:53:00
3:53 PM,84.0,71.1,65,29.98,10.0,SSW,16.1,-,0.00,,Partly Cloudy,210,2013-04-10 19:53:00
4:17 PM,84.2,71.6,66,29.98,10.0,SW,16.1,-,N/A,Thunderstorm,Thunderstorm,220,2013-04-10 20:17:00
4:34 PM,82.4,68.0,62,29.99,10.0,ENE,15.0,19.6,N/A,Thunderstorm,Thunderstorm,60,2013-04-10 20:34:00
4:41 PM,78.8,68.0,69,30.00,10.0,East,10.4,-,N/A,Thunderstorm,Thunderstorm,80,2013-04-10 20:41:00
4:53 PM,77.0,66.9,71,29.99,5.0,East,11.5,-,0.02,Rain,Light Rain,80,2013-04-10 20:53:00
4:57 PM,75.2,66.2,73,29.99,1.8,NE,8.1,-,0.06,Rain,Heavy Rain,50,2013-04-10 20:57:00
5:09 PM,75.2,68.0,78,29.99,5.0,Calm,Calm,-,0.08,Rain,Light Rain,0,2013-04-10 21:09:00
5:20 PM,78.8,69.8,74,29.98,10.0,Calm,Calm,-,0.08,Thunderstorm,Overcast,0,2013-04-10 21:20:00
5:35 PM,77.0,69.8,78,29.99,10.0,SE,5.8,-,0.08,,Scattered Clouds,130,2013-04-10 21:35:00
5:53 PM,79.0,71.1,77,29.99,10.0,Variable,3.5,-,0.08,,Scattered Clouds,0,2013-04-10 21:53:00
6:03 PM,78.8,71.6,78,30.00,10.0,ESE,6.9,-,N/A,Thunderstorm,Thunderstorm,110,2013-04-10 22:03:00
6:13 PM,75.2,69.8,83,30.01,1.5,SSE,6.9,-,0.09,Rain-Thunderstorm,Heavy Thunderstorms and Rain,150,2013-04-10 22:13:00
6:22 PM,73.4,68.0,83,29.99,0.2,NNW,3.5,-,0.36,Rain-Thunderstorm,Heavy Thunderstorms and Rain,330,2013-04-10 22:22:00
6:30 PM,73.4,69.8,88,29.99,3.0,Calm,Calm,-,0.39,Rain-Thunderstorm,Light Thunderstorms and Rain,0,2013-04-10 22:30:00
6:35 PM,73.4,69.8,88,29.99,7.0,Calm,Calm,-,0.39,Rain,Light Rain,0,2013-04-10 22:35:00
6:53 PM,75.0,70.0,84,29.97,10.0,East,4.6,-,0.39,,Mostly Cloudy,80,2013-04-10 22:53:00
7:53 PM,75.9,72.0,87,29.97,10.0,ESE,4.6,-,N/A,,Mostly Cloudy,120,2013-04-10 23:53:00
8:53 PM,75.0,71.1,87,29.99,5.0,East,6.9,-,0.02,Rain,Rain,90,2013-04-11 00:53:00
9:53 PM,73.9,71.1,91,30.00,10.0,East,4.6,-,0.02,,Mostly Cloudy,100,2013-04-11 01:53:00
10:53 PM,73.9,70.0,87,30.01,10.0,ESE,6.9,-,N/A,,Clear,110,2013-04-11 02:53:00
11:53 PM,73.0,70.0,90,30.00,10.0,East,5.8,-,N/A,,Clear,90,2013-04-11 03:53:00